Allison, CO

12:17 AM MDT on September 23, 2014 (GMT -0600)
Durango-La Plata County | Change Station
CLOSE
Current Station
Airport
Location: Durango,
Elevation: 6683 ft
Nearby Weather Stations

Elev 6683 ft 37.14 °N, 107.76 °W | Updated 24 minutes ago

Clear
Clear
53 °F
Feels Like 53 °F
N
0
Wind Variable Wind from North

Today
High -- | Low -- °F
--% Chance of Precip.
Yesterday
High -- | Low -- °F
Precip. -- in
6:59 AM 7:05 PM
Waning Crescent, 1% visible
Pressure 30.12 in
Visibility 10.0 miles
Clouds Clear
Dew Point 44 °F
Humidity 71%
Rainfall 0.47 in
Snow Depth Not available.
UV 0 out of 12
Pollen 4.30 out of 12
Air Quality Not available.
Flu Activity Not available.
METAR KDRO 230553Z AUTO 00000KT 10SM CLR 12/07 A3030 RMK AO2 SLP198 T01170067 10228 20111 53008

More Conditions Fewer Conditions

Pressure 30.12 in
Visibility 10.0 miles
Clouds Clear
Dew Point 44 °F
Humidity 71%
Rainfall 0.47 in
Snow Depth Not available.
UV 0 out of 12
Pollen 4.30 out of 12
Air Quality Not available.
Flu Activity Not available.
METAR KDRO 230553Z AUTO 00000KT 10SM CLR 12/07 A3030 RMK AO2 SLP198 T01170067 10228 20111 53008

More Conditions Fewer Conditions

10-Day Weather Forecast

Almanac

Astronomy

Sep. 23, 2014 Rise Set
Actual Time 6:59 AM MDT 7:05 PM MDT
Civil Twilight 6:33 AM MDT 7:31 PM MDT
Nautical Twilight 6:03 AM MDT 8:02 PM MDT
Astronomical Twilight 5:32 AM MDT 8:32 PM MDT
Moon 6:26 AM MDT 6:46 PM MDT
Length of Visible Light 12h 58m
Length of Day
12h 06m
Tomorrow will be 2m 22s shorter.
Waning Crescent, 1% of the Moon is Illuminated
Today
Waning Crescent
Sep 24
New
Oct 1
First Quarter
Oct 8
Full
Oct 15
Last Quarter

Today's Extremes

State Highs State Lows

Community

WunderPhotos

Upload Photos

1,755,608 photos uploaded!

Nearby

Snow Depth

Station Depth Elevation
Tower 0 in 10500 ft
Joe Wright 0 in 10120 ft
Grizzly Peak 0 in 11100 ft
Copper Mountain 0 in 10500 ft
Trapper Lake 1 in 9700 ft

Earthquake Activity

City Distance Mag. Time & Date
No recent earthquake activity has been reported nearby.
Minimum magnitude displayed is 2.5.

Coastal Water Temperatures

Place Temperature
No Stations Reporting

Nearby Weather Stations